Bitte die für das Benutzerkonto hinterlegte E-Mail-Adresse eingeben. Der Benutzername wird dann an diese E-Mail-Adresse geschickt.

WebCam

  
Kamera Halle
Kamera Vorfeld

GPS Triangle WM Sports Class

AeroClub Göppingen-Salach e.V.
Ausrichter der Modellflug
GPS Triangle-WM 2020

Wetter EDDS

METAR

EDDS 220920Z VRB01KT 4000 BR FEW003 01/01 Q1009 BECMG 6000 =
AMD EDDS 220636Z 2206/2306 VRB03KT 6000 FEW003 PROB30 TEMPO 2206/2210 1500 BR BKN003 BECMG 2211/2214 06005KT


TAF

AMD EDDS 220636Z 2206/2306 VRB03KT 6000 FEW003 PROB30 TEMPO 2206/2210 1500 BR BKN003 BECMG 2211/2214 06005KT =


SR/SS

06:39 / 15:35 UTC
(EDSO 22-11-2019)